createdAt,value
2022-09-10T00:01:35.241Z,4.70
2022-09-10T00:04:07.439Z,4.65
2022-09-10T00:06:38.566Z,4.68
2022-09-10T00:09:06.754Z,4.97
2022-09-10T00:11:35.223Z,5.28
2022-09-10T00:14:04.613Z,5.38
2022-09-10T00:16:32.561Z,5.13
2022-09-10T00:19:01.745Z,5.30
2022-09-10T00:21:30.029Z,4.78
2022-09-10T00:23:57.812Z,4.55
2022-09-10T00:26:27.801Z,5.03
2022-09-10T00:28:57.085Z,5.15
2022-09-10T00:31:24.502Z,5.00
2022-09-10T00:33:52.597Z,4.97
2022-09-10T00:36:27.133Z,5.30
2022-09-10T00:38:57.734Z,5.07
2022-09-10T00:41:26.189Z,5.57
2022-09-10T00:44:02.539Z,5.28
2022-09-10T00:46:36.905Z,5.45
2022-09-10T00:49:15.320Z,5.20
2022-09-10T00:51:45.149Z,5.45
2022-09-10T00:54:14.159Z,5.20
2022-09-10T00:56:43.090Z,5.95
2022-09-10T00:59:14.558Z,6.10
2022-09-10T01:01:42.509Z,6.30
2022-09-10T01:04:10.663Z,5.88
2022-09-10T01:06:40.877Z,6.18
2022-09-10T01:09:09.532Z,5.80
2022-09-10T01:12:08.957Z,6.13
2022-09-10T01:14:39.337Z,5.75
2022-09-10T01:17:25.981Z,6.15
2022-09-10T01:20:26.273Z,6.03
2022-09-10T01:23:17.021Z,4.95
2022-09-10T01:25:48.436Z,4.07
2022-09-10T01:28:25.232Z,4.60
2022-09-10T01:31:01.437Z,3.95
2022-09-10T01:33:41.781Z,4.00
2022-09-10T01:36:22.087Z,3.50
2022-09-10T01:38:51.552Z,3.75
2022-09-10T01:41:23.281Z,3.70
2022-09-10T01:43:50.636Z,3.30
2022-09-10T01:46:54.944Z,3.45
2022-09-10T01:50:01.468Z,3.50
2022-09-10T01:52:38.105Z,3.47
2022-09-10T01:55:22.438Z,2.85
2022-09-10T01:57:59.563Z,3.10
2022-09-10T02:00:28.000Z,2.92
2022-09-10T02:03:24.705Z,2.97
2022-09-10T02:05:54.426Z,2.60
2022-09-10T02:08:32.630Z,2.60
2022-09-10T02:11:09.176Z,2.90
2022-09-10T02:13:36.866Z,2.70
2022-09-10T02:16:11.205Z,2.95
2022-09-10T02:18:40.096Z,2.25
2022-09-10T02:21:09.277Z,2.75
2022-09-10T02:23:42.201Z,2.40
2022-09-10T02:26:11.246Z,2.35
2022-09-10T02:28:38.809Z,2.60
2022-09-10T02:31:06.227Z,2.45
2022-09-10T02:33:34.055Z,2.70
2022-09-10T02:36:02.155Z,2.60
2022-09-10T02:38:30.099Z,2.50
2022-09-10T02:40:59.202Z,2.50
2022-09-10T02:43:28.292Z,1.95
2022-09-10T02:45:57.308Z,1.98
2022-09-10T02:48:26.157Z,2.30
2022-09-10T02:50:54.841Z,2.42
2022-09-10T02:53:22.181Z,2.50
2022-09-10T02:55:49.738Z,2.22
2022-09-10T02:58:17.737Z,2.20
2022-09-10T03:00:45.680Z,2.13
2022-09-10T03:03:14.298Z,1.92
2022-09-10T03:05:41.647Z,2.25
2022-09-10T03:08:09.856Z,1.88
2022-09-10T03:10:39.468Z,1.98
2022-09-10T03:13:06.849Z,2.30
2022-09-10T03:15:34.356Z,1.90
2022-09-10T03:18:01.970Z,1.75
2022-09-10T03:20:29.342Z,1.90
2022-09-10T03:22:57.176Z,1.83
2022-09-10T03:25:25.574Z,1.65
2022-09-10T03:27:52.913Z,1.50
2022-09-10T03:30:21.166Z,1.92
2022-09-10T03:32:49.141Z,1.73
2022-09-10T03:35:16.835Z,1.80
2022-09-10T03:37:44.318Z,1.80
2022-09-10T03:40:11.916Z,1.60
2022-09-10T03:42:39.339Z,2.05
2022-09-10T03:45:07.414Z,1.83
2022-09-10T03:47:37.725Z,1.50
2022-09-10T03:50:05.622Z,1.20
2022-09-10T03:52:33.526Z,1.67
2022-09-10T03:55:01.015Z,1.30
2022-09-10T03:57:28.464Z,1.30
2022-09-10T03:59:56.665Z,1.67
2022-09-10T04:02:24.363Z,1.40
2022-09-10T04:04:52.025Z,1.33
2022-09-10T04:07:19.391Z,1.20
2022-09-10T04:09:47.058Z,1.55
2022-09-10T04:12:14.522Z,1.30
2022-09-10T04:14:45.320Z,1.30
2022-09-10T04:17:13.383Z,1.33
2022-09-10T04:19:40.727Z,1.35
2022-09-10T04:22:08.086Z,1.20
2022-09-10T04:24:35.569Z,1.40
2022-09-10T04:27:02.968Z,1.23
2022-09-10T04:29:31.410Z,1.63
2022-09-10T04:31:58.906Z,1.20
2022-09-10T04:34:26.227Z,1.42
2022-09-10T04:36:53.630Z,1.27
2022-09-10T04:39:21.185Z,1.20
2022-09-10T04:41:48.484Z,1.30
2022-09-10T04:44:20.097Z,1.50
2022-09-10T04:46:47.936Z,1.20
2022-09-10T04:49:15.274Z,1.60
2022-09-10T04:51:42.707Z,1.60
2022-09-10T04:54:13.487Z,1.45
2022-09-10T04:56:41.141Z,1.40
2022-09-10T04:59:10.784Z,1.70
2022-09-10T05:01:38.380Z,1.50
2022-09-10T05:04:05.735Z,1.40
2022-09-10T05:06:34.337Z,1.80
2022-09-10T05:09:02.017Z,1.42
2022-09-10T05:11:29.413Z,1.40
2022-09-10T05:13:56.737Z,1.60
2022-09-10T05:16:24.690Z,1.60
2022-09-10T05:18:53.215Z,1.90
2022-09-10T05:21:20.542Z,2.17
2022-09-10T05:23:48.103Z,2.65
2022-09-10T05:26:15.475Z,2.65
2022-09-10T05:28:42.838Z,2.90
2022-09-10T05:31:10.385Z,3.05
2022-09-10T05:33:40.716Z,2.70
2022-09-10T05:36:11.583Z,2.75
2022-09-10T05:38:40.114Z,2.70
2022-09-10T05:41:11.238Z,3.22
2022-09-10T05:43:40.257Z,2.92
2022-09-10T05:46:08.309Z,3.40
2022-09-10T05:48:39.626Z,2.60
2022-09-10T05:51:09.335Z,2.60
2022-09-10T05:53:38.185Z,2.58
2022-09-10T05:56:06.503Z,2.40
2022-09-10T05:58:34.621Z,2.40
2022-09-10T06:01:02.008Z,2.92
2022-09-10T06:03:29.469Z,2.00
2022-09-10T06:05:56.929Z,2.42
2022-09-10T06:08:24.405Z,1.90
2022-09-10T06:11:00.299Z,1.95
2022-09-10T06:13:27.889Z,2.20
2022-09-10T06:15:55.613Z,2.17
2022-09-10T06:18:23.156Z,1.98
2022-09-10T06:21:01.065Z,1.95
2022-09-10T06:23:28.473Z,1.83
2022-09-10T06:26:01.892Z,1.80
2022-09-10T06:28:29.293Z,2.30
2022-09-10T06:30:57.095Z,2.22
2022-09-10T06:33:24.778Z,1.85
2022-09-10T06:35:56.825Z,2.03
2022-09-10T06:38:25.354Z,1.92
2022-09-10T06:40:59.183Z,1.90
2022-09-10T06:43:27.871Z,1.95
2022-09-10T06:45:55.959Z,2.00
2022-09-10T06:48:48.474Z,1.95
2022-09-10T06:51:16.558Z,1.92
2022-09-10T06:53:46.528Z,1.88
2022-09-10T06:56:15.141Z,1.85
2022-09-10T06:58:42.754Z,1.88
2022-09-10T07:01:13.782Z,1.63
2022-09-10T07:03:43.445Z,1.60
2022-09-10T07:06:13.965Z,1.85
2022-09-10T07:08:42.200Z,1.50
2022-09-10T07:11:14.586Z,1.80
2022-09-10T07:13:45.733Z,1.40
2022-09-10T07:16:17.240Z,1.90
2022-09-10T07:18:48.157Z,1.50
2022-09-10T07:21:16.331Z,1.55
2022-09-10T07:23:44.377Z,1.40
2022-09-10T07:26:13.972Z,1.67
2022-09-10T07:28:42.816Z,1.40
2022-09-10T07:31:16.602Z,1.60
2022-09-10T07:33:45.292Z,1.45
2022-09-10T07:36:13.078Z,1.38
2022-09-10T07:38:42.055Z,1.70
2022-09-10T07:41:11.952Z,1.70
2022-09-10T07:43:43.751Z,1.80
2022-09-10T07:46:19.469Z,1.70
2022-09-10T07:48:58.053Z,1.92
2022-09-10T07:51:27.704Z,1.90
2022-09-10T07:53:57.211Z,1.75
2022-09-10T07:56:25.862Z,1.77
2022-09-10T07:58:54.068Z,1.65
2022-09-10T08:01:21.558Z,1.60
2022-09-10T08:03:49.351Z,1.80
2022-09-10T08:06:17.119Z,2.33
2022-09-10T08:08:44.656Z,1.67
2022-09-10T08:11:17.966Z,1.88
2022-09-10T08:13:49.005Z,1.73
2022-09-10T08:16:24.344Z,1.80
2022-09-10T08:18:52.144Z,1.85
2022-09-10T08:21:19.945Z,1.70
2022-09-10T08:23:54.070Z,2.05
2022-09-10T08:26:24.280Z,2.33
2022-09-10T08:28:53.464Z,2.42
2022-09-10T08:31:22.734Z,1.85
2022-09-10T08:33:52.083Z,1.77
2022-09-10T08:36:21.794Z,2.00
2022-09-10T08:38:50.407Z,1.90
2022-09-10T08:41:26.708Z,2.00
2022-09-10T08:44:03.273Z,2.20
2022-09-10T08:46:45.345Z,2.45
2022-09-10T08:49:54.475Z,1.80
2022-09-10T08:52:40.765Z,1.70
2022-09-10T08:55:17.153Z,1.60
2022-09-10T08:58:20.868Z,1.77
2022-09-10T09:00:55.862Z,1.75
2022-09-10T09:06:04.103Z,2.10
2022-09-10T09:08:41.009Z,1.90
2022-09-10T09:11:52.711Z,2.20
2022-09-10T09:15:03.838Z,2.13
2022-09-10T09:18:06.597Z,2.38
2022-09-10T09:20:51.545Z,2.13
2022-09-10T09:26:20.952Z,2.08
2022-09-10T09:29:11.290Z,2.38
2022-09-10T09:31:43.267Z,2.90
2022-09-10T09:34:22.657Z,2.80
2022-09-10T09:36:53.824Z,3.10
2022-09-10T09:39:25.591Z,2.90
2022-09-10T09:42:15.761Z,3.15
2022-09-10T09:44:57.290Z,3.17
2022-09-10T09:47:24.722Z,2.70
2022-09-10T09:49:53.939Z,2.72
2022-09-10T09:52:23.146Z,2.45
2022-09-10T09:55:15.947Z,2.50
2022-09-10T09:57:44.893Z,2.40
2022-09-10T10:00:36.026Z,2.50
2022-09-10T10:03:18.245Z,2.45
2022-09-10T10:05:47.293Z,2.38
2022-09-10T10:08:31.493Z,2.33
2022-09-10T10:10:59.266Z,2.40
2022-09-10T10:13:39.825Z,2.30
2022-09-10T10:16:20.959Z,2.08
2022-09-10T10:18:49.646Z,2.30
2022-09-10T10:21:23.371Z,2.78
2022-09-10T10:23:50.881Z,2.10
2022-09-10T10:26:20.954Z,2.63
2022-09-10T10:28:59.762Z,2.50
2022-09-10T10:31:38.727Z,2.58
2022-09-10T10:34:15.014Z,1.98
2022-09-10T10:37:20.159Z,2.35
2022-09-10T10:40:24.554Z,2.20
2022-09-10T10:43:04.128Z,2.05
2022-09-10T10:45:38.337Z,1.88
2022-09-10T10:48:17.522Z,2.20
2022-09-10T10:51:15.011Z,2.05
2022-09-10T10:53:51.681Z,2.03
2022-09-10T10:56:42.571Z,1.92
2022-09-10T10:59:44.706Z,1.98
2022-09-10T11:02:21.417Z,1.80
2022-09-10T11:04:55.152Z,2.17
2022-09-10T11:07:29.676Z,1.90
2022-09-10T11:10:03.728Z,1.90
2022-09-10T11:12:39.915Z,1.70
2022-09-10T11:15:19.868Z,1.88
2022-09-10T11:18:17.099Z,1.90
2022-09-10T11:20:56.190Z,1.85
2022-09-10T11:23:41.783Z,2.10
2022-09-10T11:26:21.897Z,1.85
2022-09-10T11:29:16.900Z,2.10
2022-09-10T11:31:53.872Z,1.65
2022-09-10T11:34:32.873Z,2.00
2022-09-10T11:37:35.942Z,1.90
2022-09-10T11:40:13.493Z,2.40
2022-09-10T11:42:46.737Z,2.13
2022-09-10T11:45:23.535Z,2.33
2022-09-10T11:48:00.361Z,2.10
2022-09-10T11:50:34.843Z,2.10
2022-09-10T11:53:07.362Z,1.95
2022-09-10T11:55:50.535Z,2.05
2022-09-10T11:58:32.630Z,2.10
2022-09-10T12:01:13.362Z,2.20
2022-09-10T12:03:56.195Z,2.50
2022-09-10T12:06:47.083Z,2.70
2022-09-10T12:09:26.337Z,2.50
2022-09-10T12:12:09.350Z,2.33
2022-09-10T12:14:39.569Z,2.47
2022-09-10T12:17:23.480Z,2.40
2022-09-10T12:19:57.488Z,3.05
2022-09-10T12:22:36.945Z,2.55
2022-09-10T12:25:22.878Z,2.42
2022-09-10T12:27:56.744Z,2.85
2022-09-10T12:30:27.549Z,2.50
2022-09-10T12:32:59.145Z,2.50
2022-09-10T12:35:30.342Z,2.40
2022-09-10T12:38:36.724Z,2.15
2022-09-10T12:41:08.815Z,2.03
2022-09-10T12:43:39.076Z,1.98
2022-09-10T12:46:06.900Z,2.17
2022-09-10T12:48:36.997Z,2.75
2022-09-10T12:51:18.955Z,2.90
2022-09-10T12:54:04.660Z,2.20
2022-09-10T12:56:57.946Z,2.13
2022-09-10T12:59:51.219Z,2.05
2022-09-10T13:02:30.036Z,2.03
2022-09-10T13:05:06.196Z,2.10
2022-09-10T13:07:40.204Z,2.00
2022-09-10T13:10:29.017Z,2.35
2022-09-10T13:13:01.219Z,1.90
2022-09-10T13:15:35.439Z,1.80
2022-09-10T13:18:09.030Z,1.70
2022-09-10T13:20:38.890Z,1.70
2022-09-10T13:23:09.226Z,1.60
2022-09-10T13:25:41.527Z,1.55
2022-09-10T13:28:43.060Z,1.92
2022-09-10T13:31:17.061Z,1.38
2022-09-10T13:33:52.023Z,1.35
2022-09-10T13:36:43.723Z,1.70
2022-09-10T13:39:46.170Z,1.40
2022-09-10T13:42:32.379Z,1.60
2022-09-10T13:45:24.088Z,1.90
2022-09-10T13:47:58.808Z,1.80
2022-09-10T13:50:31.079Z,1.75
2022-09-10T13:53:03.466Z,2.08
2022-09-10T13:55:32.097Z,1.90
2022-09-10T13:58:15.470Z,1.90
2022-09-10T14:00:54.788Z,1.80
2022-09-10T14:03:35.066Z,1.92
2022-09-10T14:06:18.719Z,1.90
2022-09-10T14:09:04.593Z,2.05
2022-09-10T14:11:37.953Z,1.60
2022-09-10T14:14:11.186Z,1.65
2022-09-10T14:16:48.501Z,1.60
2022-09-10T14:19:49.239Z,1.42
2022-09-10T14:22:22.193Z,1.58
2022-09-10T14:24:53.579Z,1.60
2022-09-10T14:27:37.273Z,1.60
2022-09-10T14:30:23.331Z,1.20
2022-09-10T14:32:52.168Z,1.20
2022-09-10T14:35:36.333Z,1.20
2022-09-10T14:38:36.611Z,1.30
2022-09-10T14:41:11.047Z,1.50
2022-09-10T14:43:40.484Z,1.77
2022-09-10T14:46:12.347Z,1.40
2022-09-10T14:49:07.821Z,1.30
2022-09-10T14:51:35.159Z,1.40
2022-09-10T14:54:03.527Z,1.30
2022-09-10T14:56:38.612Z,1.48
2022-09-10T14:59:16.089Z,1.50
2022-09-10T15:01:48.582Z,1.70
2022-09-10T15:04:19.109Z,2.00
2022-09-10T15:06:46.578Z,1.70
2022-09-10T15:09:14.946Z,1.90
2022-09-10T15:11:55.720Z,1.88
2022-09-10T15:14:23.160Z,1.77
2022-09-10T15:16:52.203Z,1.73
2022-09-10T15:19:21.994Z,1.70
2022-09-10T15:21:50.386Z,1.80
2022-09-10T15:24:20.921Z,1.77
2022-09-10T15:26:49.581Z,1.80
2022-09-10T15:29:17.856Z,1.83
2022-09-10T15:31:45.460Z,1.63
2022-09-10T15:34:12.966Z,2.03
2022-09-10T15:36:42.363Z,2.28
2022-09-10T15:39:12.490Z,1.88
2022-09-10T15:41:44.298Z,1.92
2022-09-10T15:44:12.076Z,2.22
2022-09-10T15:46:45.311Z,2.13
2022-09-10T15:49:13.001Z,2.70
2022-09-10T15:51:41.300Z,2.17
2022-09-10T15:54:10.548Z,2.08
2022-09-10T15:56:39.522Z,2.03
2022-09-10T15:59:08.551Z,2.42
2022-09-10T16:01:38.319Z,2.17
2022-09-10T16:04:07.634Z,2.15
2022-09-10T16:06:37.814Z,2.20
2022-09-10T16:09:11.334Z,2.30
2022-09-10T16:11:41.057Z,2.60
2022-09-10T16:14:12.098Z,2.45
2022-09-10T16:16:40.955Z,2.00
2022-09-10T16:19:10.554Z,2.40
2022-09-10T16:21:39.281Z,2.10
2022-09-10T16:24:07.683Z,1.77
2022-09-10T16:26:38.361Z,1.77
2022-09-10T16:29:12.204Z,1.80
2022-09-10T16:31:40.373Z,1.60
2022-09-10T16:34:11.489Z,1.98
2022-09-10T16:36:40.004Z,1.65
2022-09-10T16:39:14.037Z,2.05
2022-09-10T16:41:44.125Z,1.73
2022-09-10T16:44:12.882Z,1.45
2022-09-10T16:46:41.075Z,1.50
2022-09-10T16:49:13.872Z,1.67
2022-09-10T16:51:42.871Z,1.60
2022-09-10T16:54:11.131Z,1.40
2022-09-10T16:56:39.946Z,1.40
2022-09-10T16:59:15.130Z,1.40
2022-09-10T17:01:44.516Z,1.52
2022-09-10T17:04:21.321Z,1.50
2022-09-10T17:06:51.126Z,1.20
2022-09-10T17:09:19.183Z,1.52
2022-09-10T17:11:47.295Z,1.90
2022-09-10T17:14:14.711Z,1.80
2022-09-10T17:16:43.720Z,1.85
2022-09-10T17:19:14.185Z,1.92
2022-09-10T17:21:48.732Z,1.40
2022-09-10T17:24:18.866Z,1.65
2022-09-10T17:26:46.615Z,1.58
2022-09-10T17:29:16.428Z,1.75
2022-09-10T17:31:48.960Z,1.58
2022-09-10T17:34:17.184Z,1.60
2022-09-10T17:36:46.937Z,2.67
2022-09-10T17:39:15.821Z,1.90
2022-09-10T17:41:43.400Z,1.75
2022-09-10T17:44:11.667Z,1.60
2022-09-10T17:46:41.879Z,1.60
2022-09-10T17:49:13.369Z,1.45
2022-09-10T17:51:41.954Z,1.50
2022-09-10T17:54:09.679Z,1.33
2022-09-10T17:56:38.089Z,1.40
2022-09-10T17:59:06.413Z,1.25
2022-09-10T18:01:38.796Z,1.10
2022-09-10T18:04:09.111Z,1.42
2022-09-10T18:06:37.970Z,1.63
2022-09-10T18:09:06.083Z,1.30
2022-09-10T18:11:37.624Z,1.45
2022-09-10T18:14:05.727Z,1.45
2022-09-10T18:16:34.944Z,1.40
2022-09-10T18:19:12.843Z,1.50
2022-09-10T18:21:43.990Z,1.80
2022-09-10T18:24:17.141Z,1.73
2022-09-10T18:26:49.258Z,2.05
2022-09-10T18:29:22.698Z,2.35
2022-09-10T18:31:53.099Z,2.50
2022-09-10T18:34:27.974Z,2.30
2022-09-10T18:36:58.776Z,2.70
2022-09-10T18:39:28.496Z,2.42
2022-09-10T18:41:57.257Z,1.95
2022-09-10T18:44:27.664Z,2.35
2022-09-10T18:46:59.655Z,2.17
2022-09-10T18:49:28.264Z,2.72
2022-09-10T18:52:00.385Z,2.60
2022-09-10T18:54:28.757Z,2.58
2022-09-10T18:56:58.201Z,2.13
2022-09-10T18:59:27.257Z,2.40
2022-09-10T19:01:56.039Z,2.30
2022-09-10T19:04:26.804Z,2.20
2022-09-10T19:06:58.976Z,2.55
2022-09-10T19:09:29.328Z,2.13
2022-09-10T19:12:02.815Z,2.15
2022-09-10T19:14:35.645Z,2.45
2022-09-10T19:17:06.583Z,2.10
2022-09-10T19:19:42.352Z,2.10
2022-09-10T19:22:11.509Z,2.15
2022-09-10T19:24:56.329Z,2.33
2022-09-10T19:27:26.084Z,2.20
2022-09-10T19:29:56.872Z,2.70
2022-09-10T19:32:24.393Z,2.03
2022-09-10T19:34:54.849Z,2.30
2022-09-10T19:37:22.700Z,2.38
2022-09-10T19:39:51.267Z,2.50
2022-09-10T19:42:20.047Z,2.55
2022-09-10T19:44:49.579Z,2.53
2022-09-10T19:47:17.098Z,2.55
2022-09-10T19:49:45.057Z,2.53
2022-09-10T19:52:15.076Z,2.78
2022-09-10T19:54:43.761Z,2.72
2022-09-10T19:57:15.339Z,2.60
2022-09-10T19:59:44.240Z,2.50
2022-09-10T20:02:13.259Z,2.83
2022-09-10T20:04:40.722Z,2.95
2022-09-10T20:07:16.338Z,2.80
2022-09-10T20:09:44.451Z,2.88
2022-09-10T20:12:12.397Z,2.88
2022-09-10T20:14:40.091Z,3.08
2022-09-10T20:17:07.559Z,3.10
2022-09-10T20:19:36.225Z,3.00
2022-09-10T20:22:04.066Z,2.95
2022-09-10T20:24:34.486Z,3.00
2022-09-10T20:27:02.131Z,3.38
2022-09-10T20:29:32.758Z,3.15
2022-09-10T20:32:00.364Z,2.80
2022-09-10T20:34:28.021Z,3.33
2022-09-10T20:36:55.503Z,3.13
2022-09-10T20:39:25.403Z,2.90
2022-09-10T20:41:53.315Z,3.10
2022-09-10T20:44:23.080Z,3.10
2022-09-10T20:46:50.544Z,3.58
2022-09-10T20:49:18.382Z,2.75
2022-09-10T20:51:45.786Z,3.00
2022-09-10T20:54:16.042Z,3.00
2022-09-10T20:56:44.441Z,3.08
2022-09-10T20:59:14.607Z,2.90
2022-09-10T21:01:44.048Z,2.95
2022-09-10T21:04:13.182Z,2.80
2022-09-10T21:06:40.729Z,3.28
2022-09-10T21:09:08.140Z,3.35
2022-09-10T21:11:36.317Z,3.03
2022-09-10T21:14:06.603Z,2.80
2022-09-10T21:16:36.559Z,3.10
2022-09-10T21:19:12.972Z,2.67
2022-09-10T21:21:42.051Z,2.95
2022-09-10T21:24:15.185Z,3.00
2022-09-10T21:26:45.887Z,2.95
2022-09-10T21:29:18.724Z,2.55
2022-09-10T21:31:47.179Z,2.92
2022-09-10T21:34:14.856Z,3.00
2022-09-10T21:36:43.520Z,2.75
2022-09-10T21:39:17.124Z,3.00
2022-09-10T21:41:47.173Z,2.57
2022-09-10T21:44:25.199Z,2.72
2022-09-10T21:46:53.284Z,2.60
2022-09-10T21:49:21.044Z,2.75
2022-09-10T21:51:48.489Z,2.90
2022-09-10T21:54:21.275Z,2.65
2022-09-10T21:56:49.740Z,2.80
2022-09-10T21:59:18.277Z,2.95
2022-09-10T22:01:47.700Z,2.95
2022-09-10T22:04:21.465Z,2.92
2022-09-10T22:06:50.914Z,3.08
2022-09-10T22:09:19.797Z,2.90
2022-09-10T22:11:51.213Z,2.83
2022-09-10T22:14:23.634Z,3.08
2022-09-10T22:16:52.025Z,3.05
2022-09-10T22:19:24.809Z,3.40
2022-09-10T22:21:54.172Z,2.72
2022-09-10T22:24:22.683Z,3.08
2022-09-10T22:26:49.942Z,3.05
2022-09-10T22:29:18.983Z,3.00
2022-09-10T22:31:47.817Z,2.85
2022-09-10T22:34:16.640Z,2.97
2022-09-10T22:36:47.053Z,2.65
2022-09-10T22:39:17.880Z,2.67
2022-09-10T22:41:46.181Z,2.90
2022-09-10T22:44:13.629Z,2.72
2022-09-10T22:46:41.552Z,2.70
2022-09-10T22:49:10.046Z,2.53
2022-09-10T22:51:40.791Z,2.70
2022-09-10T22:54:10.555Z,2.50
2022-09-10T22:56:38.732Z,2.80
2022-09-10T22:59:07.180Z,2.55
2022-09-10T23:01:37.028Z,2.65
2022-09-10T23:04:06.286Z,3.10
2022-09-10T23:06:36.752Z,2.65
2022-09-10T23:09:07.947Z,2.50
2022-09-10T23:11:36.908Z,2.30
2022-09-10T23:14:10.320Z,2.47
2022-09-10T23:16:40.055Z,2.20
2022-09-10T23:19:11.484Z,2.45
2022-09-10T23:21:44.867Z,2.50
2022-09-10T23:24:16.188Z,2.53
2022-09-10T23:26:44.676Z,2.60
2022-09-10T23:29:13.234Z,2.58
2022-09-10T23:31:41.033Z,2.55
2022-09-10T23:34:12.202Z,2.63
2022-09-10T23:36:42.116Z,2.58
2022-09-10T23:39:22.133Z,2.40
2022-09-10T23:41:52.006Z,2.55
2022-09-10T23:44:20.183Z,2.30
2022-09-10T23:46:48.018Z,2.30
2022-09-10T23:49:15.895Z,2.30
2022-09-10T23:51:43.441Z,2.10
2022-09-10T23:54:11.204Z,2.53
2022-09-10T23:56:39.919Z,2.30
2022-09-10T23:59:08.163Z,2.47
